sensor_id;sensor_type;location;lat;lon;timestamp;temperature;humidity
26412;DHT22;59168;;;2022-09-12T00:01:55;13.20;99.90
26412;DHT22;59168;;;2022-09-12T00:04:21;13.40;99.90
26412;DHT22;59168;;;2022-09-12T00:06:46;13.20;99.90
26412;DHT22;59168;;;2022-09-12T00:09:12;13.00;99.90
26412;DHT22;59168;;;2022-09-12T00:11:39;13.10;99.90
26412;DHT22;59168;;;2022-09-12T00:14:06;13.00;99.90
26412;DHT22;59168;;;2022-09-12T00:16:33;12.80;99.90
26412;DHT22;59168;;;2022-09-12T00:18:59;12.80;99.90
26412;DHT22;59168;;;2022-09-12T00:21:25;12.70;99.90
26412;DHT22;59168;;;2022-09-12T00:23:50;12.60;99.90
26412;DHT22;59168;;;2022-09-12T00:26:16;12.50;99.90
26412;DHT22;59168;;;2022-09-12T00:28:42;12.30;99.90
26412;DHT22;59168;;;2022-09-12T00:31:09;12.40;99.90
26412;DHT22;59168;;;2022-09-12T00:33:35;12.60;99.90
26412;DHT22;59168;;;2022-09-12T00:36:34;12.70;99.90
26412;DHT22;59168;;;2022-09-12T00:38:52;12.30;99.90
26412;DHT22;59168;;;2022-09-12T00:41:26;12.60;99.90
26412;DHT22;59168;;;2022-09-12T00:43:52;12.20;99.90
26412;DHT22;59168;;;2022-09-12T00:46:23;12.10;99.90
26412;DHT22;59168;;;2022-09-12T00:48:54;12.30;99.90
26412;DHT22;59168;;;2022-09-12T00:51:21;12.20;99.90
26412;DHT22;59168;;;2022-09-12T00:53:47;12.20;99.90
26412;DHT22;59168;;;2022-09-12T00:56:13;12.20;99.90
26412;DHT22;59168;;;2022-09-12T00:58:41;12.30;99.90
26412;DHT22;59168;;;2022-09-12T01:01:08;12.50;99.90
26412;DHT22;59168;;;2022-09-12T01:03:34;12.00;99.90
26412;DHT22;59168;;;2022-09-12T01:08:25;12.00;99.90
26412;DHT22;59168;;;2022-09-12T01:10:51;12.00;99.90
26412;DHT22;59168;;;2022-09-12T01:13:17;11.90;99.90
26412;DHT22;59168;;;2022-09-12T01:15:42;11.90;99.90
26412;DHT22;59168;;;2022-09-12T01:20:58;11.80;99.90
26412;DHT22;59168;;;2022-09-12T01:31:17;11.70;99.90
26412;DHT22;59168;;;2022-09-12T01:33:59;11.60;99.90
26412;DHT22;59168;;;2022-09-12T01:38:59;11.60;99.90
26412;DHT22;59168;;;2022-09-12T01:41:46;11.50;99.90
26412;DHT22;59168;;;2022-09-12T01:44:20;11.50;99.90
26412;DHT22;59168;;;2022-09-12T01:46:53;11.50;99.90
26412;DHT22;59168;;;2022-09-12T01:49:27;11.40;99.90
26412;DHT22;59168;;;2022-09-12T01:51:59;11.40;99.90
26412;DHT22;59168;;;2022-09-12T01:54:35;11.40;99.90
26412;DHT22;59168;;;2022-09-12T01:57:03;11.10;99.90
26412;DHT22;59168;;;2022-09-12T01:59:35;11.40;99.90
26412;DHT22;59168;;;2022-09-12T02:02:08;11.30;99.90
26412;DHT22;59168;;;2022-09-12T02:04:40;11.30;99.90
26412;DHT22;59168;;;2022-09-12T02:07:12;11.20;99.90
26412;DHT22;59168;;;2022-09-12T02:09:45;11.20;99.90
26412;DHT22;59168;;;2022-09-12T02:12:13;11.20;99.90
26412;DHT22;59168;;;2022-09-12T02:14:41;11.20;99.90
26412;DHT22;59168;;;2022-09-12T02:17:08;11.10;99.90
26412;DHT22;59168;;;2022-09-12T02:19:36;11.10;99.90
26412;DHT22;59168;;;2022-09-12T02:22:04;10.90;99.90
26412;DHT22;59168;;;2022-09-12T02:24:32;11.00;99.90
26412;DHT22;59168;;;2022-09-12T02:27:05;10.90;99.90
26412;DHT22;59168;;;2022-09-12T02:29:33;11.00;99.90
26412;DHT22;59168;;;2022-09-12T02:32:00;11.00;99.90
26412;DHT22;59168;;;2022-09-12T02:39:39;11.10;99.90
26412;DHT22;59168;;;2022-09-12T02:42:05;11.00;99.90
26412;DHT22;59168;;;2022-09-12T02:44:30;11.00;99.90
26412;DHT22;59168;;;2022-09-12T02:47:08;11.00;99.90
26412;DHT22;59168;;;2022-09-12T02:49:34;11.00;99.90
26412;DHT22;59168;;;2022-09-12T02:52:00;10.90;99.90
26412;DHT22;59168;;;2022-09-12T02:54:26;10.90;99.90
26412;DHT22;59168;;;2022-09-12T02:56:52;10.80;99.90
26412;DHT22;59168;;;2022-09-12T02:59:18;10.80;99.90
26412;DHT22;59168;;;2022-09-12T03:07:13;10.80;99.90
26412;DHT22;59168;;;2022-09-12T03:12:23;10.80;99.90
26412;DHT22;59168;;;2022-09-12T03:17:25;10.80;99.90
26412;DHT22;59168;;;2022-09-12T03:25:20;10.70;99.90
26412;DHT22;59168;;;2022-09-12T03:30:21;10.70;99.90
26412;DHT22;59168;;;2022-09-12T03:32:48;10.60;99.90
26412;DHT22;59168;;;2022-09-12T03:35:15;10.60;99.90
26412;DHT22;59168;;;2022-09-12T03:37:42;10.60;99.90
26412;DHT22;59168;;;2022-09-12T03:40:10;10.50;99.90
26412;DHT22;59168;;;2022-09-12T03:42:36;10.50;99.90
26412;DHT22;59168;;;2022-09-12T03:45:02;10.30;99.90
26412;DHT22;59168;;;2022-09-12T03:47:28;10.50;99.90
26412;DHT22;59168;;;2022-09-12T03:49:53;10.50;99.90
26412;DHT22;59168;;;2022-09-12T03:52:19;10.50;99.90
26412;DHT22;59168;;;2022-09-12T03:54:45;10.50;99.90
26412;DHT22;59168;;;2022-09-12T03:57:10;10.60;99.90
26412;DHT22;59168;;;2022-09-12T03:59:36;10.20;99.90
26412;DHT22;59168;;;2022-09-12T04:02:02;10.40;99.90
26412;DHT22;59168;;;2022-09-12T04:04:27;10.40;99.90
26412;DHT22;59168;;;2022-09-12T04:06:53;10.50;99.90
26412;DHT22;59168;;;2022-09-12T04:09:18;10.60;99.90
26412;DHT22;59168;;;2022-09-12T04:11:44;10.50;99.90
26412;DHT22;59168;;;2022-09-12T04:14:09;10.50;99.90
26412;DHT22;59168;;;2022-09-12T04:16:35;10.40;99.90
26412;DHT22;59168;;;2022-09-12T04:19:00;10.40;99.90
26412;DHT22;59168;;;2022-09-12T04:21:26;10.30;99.90
26412;DHT22;59168;;;2022-09-12T04:23:51;10.40;99.90
26412;DHT22;59168;;;2022-09-12T04:26:17;10.20;99.90
26412;DHT22;59168;;;2022-09-12T04:28:43;10.50;99.90
26412;DHT22;59168;;;2022-09-12T04:31:10;10.40;99.90
26412;DHT22;59168;;;2022-09-12T04:33:36;10.40;99.90
26412;DHT22;59168;;;2022-09-12T04:36:03;10.40;99.90
26412;DHT22;59168;;;2022-09-12T04:38:28;10.30;99.90
26412;DHT22;59168;;;2022-09-12T04:40:54;10.30;99.90
26412;DHT22;59168;;;2022-09-12T04:43:21;10.30;99.90
26412;DHT22;59168;;;2022-09-12T04:45:46;10.30;99.90
26412;DHT22;59168;;;2022-09-12T04:48:12;10.20;99.90
26412;DHT22;59168;;;2022-09-12T04:50:37;10.40;99.90
26412;DHT22;59168;;;2022-09-12T04:53:03;10.20;99.90
26412;DHT22;59168;;;2022-09-12T04:55:28;10.80;99.90
26412;DHT22;59168;;;2022-09-12T04:57:54;10.30;99.90
26412;DHT22;59168;;;2022-09-12T05:00:19;10.70;99.90
26412;DHT22;59168;;;2022-09-12T05:02:45;10.90;99.90
26412;DHT22;59168;;;2022-09-12T05:05:10;10.60;99.90
26412;DHT22;59168;;;2022-09-12T05:07:36;10.80;99.90
26412;DHT22;59168;;;2022-09-12T05:12:28;12.00;99.90
26412;DHT22;59168;;;2022-09-12T05:14:54;13.00;99.90
26412;DHT22;59168;;;2022-09-12T05:17:20;13.80;99.90
26412;DHT22;59168;;;2022-09-12T05:19:46;14.40;99.90
26412;DHT22;59168;;;2022-09-12T05:22:12;15.10;99.90
26412;DHT22;59168;;;2022-09-12T05:24:37;15.80;99.90
26412;DHT22;59168;;;2022-09-12T05:27:03;16.80;99.90
26412;DHT22;59168;;;2022-09-12T05:29:29;17.00;99.90
26412;DHT22;59168;;;2022-09-12T05:31:55;17.00;99.90
26412;DHT22;59168;;;2022-09-12T05:34:20;16.90;99.90
26412;DHT22;59168;;;2022-09-12T05:36:46;17.30;99.90
26412;DHT22;59168;;;2022-09-12T05:41:37;18.60;99.90
26412;DHT22;59168;;;2022-09-12T05:44:03;18.90;99.90
26412;DHT22;59168;;;2022-09-12T05:46:30;19.10;99.90
26412;DHT22;59168;;;2022-09-12T05:49:01;19.00;99.90
26412;DHT22;59168;;;2022-09-12T05:51:27;19.20;99.90
26412;DHT22;59168;;;2022-09-12T05:53:56;18.90;99.90
26412;DHT22;59168;;;2022-09-12T05:56:23;18.90;99.90
26412;DHT22;59168;;;2022-09-12T05:58:56;19.10;99.90
26412;DHT22;59168;;;2022-09-12T06:01:21;19.70;99.90
26412;DHT22;59168;;;2022-09-12T06:03:48;20.10;99.90
26412;DHT22;59168;;;2022-09-12T06:06:14;20.10;99.90
26412;DHT22;59168;;;2022-09-12T06:08:41;19.90;99.90
26412;DHT22;59168;;;2022-09-12T06:11:07;19.90;99.90
26412;DHT22;59168;;;2022-09-12T06:13:34;20.50;99.90
26412;DHT22;59168;;;2022-09-12T06:16:04;21.30;99.90
26412;DHT22;59168;;;2022-09-12T06:18:31;21.80;99.90
26412;DHT22;59168;;;2022-09-12T06:20:56;22.20;99.90
26412;DHT22;59168;;;2022-09-12T06:23:23;22.30;99.90
26412;DHT22;59168;;;2022-09-12T06:25:48;22.70;99.90
26412;DHT22;59168;;;2022-09-12T06:28:14;22.40;99.90
26412;DHT22;59168;;;2022-09-12T06:30:40;22.30;99.90
26412;DHT22;59168;;;2022-09-12T06:33:05;22.90;99.90
26412;DHT22;59168;;;2022-09-12T06:35:34;23.70;99.90
26412;DHT22;59168;;;2022-09-12T06:37:59;24.60;99.90
26412;DHT22;59168;;;2022-09-12T06:40:25;24.70;99.90
26412;DHT22;59168;;;2022-09-12T06:42:51;25.30;99.90
26412;DHT22;59168;;;2022-09-12T06:45:17;25.00;99.90
26412;DHT22;59168;;;2022-09-12T06:47:44;24.90;99.90
26412;DHT22;59168;;;2022-09-12T06:50:09;24.80;99.90
26412;DHT22;59168;;;2022-09-12T06:52:35;25.20;99.90
26412;DHT22;59168;;;2022-09-12T06:55:00;25.60;99.90
26412;DHT22;59168;;;2022-09-12T06:57:26;25.70;99.90
26412;DHT22;59168;;;2022-09-12T06:59:54;26.50;99.90
26412;DHT22;59168;;;2022-09-12T07:02:20;26.30;99.90
26412;DHT22;59168;;;2022-09-12T07:04:45;25.10;99.90
26412;DHT22;59168;;;2022-09-12T07:07:11;24.90;99.90
26412;DHT22;59168;;;2022-09-12T07:09:37;25.50;99.90
26412;DHT22;59168;;;2022-09-12T07:12:02;25.90;99.90
26412;DHT22;59168;;;2022-09-12T07:14:28;25.70;99.90
26412;DHT22;59168;;;2022-09-12T07:16:54;25.20;99.90
26412;DHT22;59168;;;2022-09-12T07:19:19;25.30;99.90
26412;DHT22;59168;;;2022-09-12T07:21:45;25.10;99.90
26412;DHT22;59168;;;2022-09-12T07:24:10;24.90;99.90
26412;DHT22;59168;;;2022-09-12T07:26:36;24.50;99.90
26412;DHT22;59168;;;2022-09-12T07:29:02;24.40;99.90
26412;DHT22;59168;;;2022-09-12T07:31:29;23.90;99.90
26412;DHT22;59168;;;2022-09-12T07:33:54;24.20;99.90
26412;DHT22;59168;;;2022-09-12T07:36:21;25.10;99.90
26412;DHT22;59168;;;2022-09-12T07:38:47;25.90;99.90
26412;DHT22;59168;;;2022-09-12T07:41:13;27.10;99.40
26412;DHT22;59168;;;2022-09-12T07:43:39;27.50;99.10
26412;DHT22;59168;;;2022-09-12T07:46:06;28.60;97.80
26412;DHT22;59168;;;2022-09-12T07:48:32;30.10;95.80
26412;DHT22;59168;;;2022-09-12T07:51:02;30.00;95.90
26412;DHT22;59168;;;2022-09-12T07:53:35;30.90;94.10
26412;DHT22;59168;;;2022-09-12T07:56:01;31.70;93.00
26412;DHT22;59168;;;2022-09-12T07:58:30;32.00;92.30
26412;DHT22;59168;;;2022-09-12T08:03:27;31.60;91.00
26412;DHT22;59168;;;2022-09-12T08:05:53;31.70;90.90
26412;DHT22;59168;;;2022-09-12T08:08:19;31.70;90.40
26412;DHT22;59168;;;2022-09-12T08:10:44;32.40;90.20
26412;DHT22;59168;;;2022-09-12T08:13:10;30.00;90.00
26412;DHT22;59168;;;2022-09-12T08:15:35;27.60;92.00
26412;DHT22;59168;;;2022-09-12T08:18:01;27.70;93.60
26412;DHT22;59168;;;2022-09-12T08:20:26;28.90;92.40
26412;DHT22;59168;;;2022-09-12T08:22:52;28.10;91.70
26412;DHT22;59168;;;2022-09-12T08:25:17;27.10;93.20
26412;DHT22;59168;;;2022-09-12T08:27:43;27.50;94.10
26412;DHT22;59168;;;2022-09-12T08:30:09;29.30;91.90
26412;DHT22;59168;;;2022-09-12T08:32:34;30.10;91.30
26412;DHT22;59168;;;2022-09-12T08:35:00;29.20;90.30
26412;DHT22;59168;;;2022-09-12T08:37:28;27.40;91.60
26412;DHT22;59168;;;2022-09-12T08:39:54;27.10;92.90
26412;DHT22;59168;;;2022-09-12T08:42:40;26.70;91.80
26412;DHT22;59168;;;2022-09-12T08:45:31;25.50;93.90
26412;DHT22;59168;;;2022-09-12T08:47:54;26.30;94.30
26412;DHT22;59168;;;2022-09-12T08:50:20;27.60;92.10
26412;DHT22;59168;;;2022-09-12T08:57:43;26.10;92.40
26412;DHT22;59168;;;2022-09-12T09:00:11;24.80;93.60
26412;DHT22;59168;;;2022-09-12T09:08:00;24.50;95.70
26412;DHT22;59168;;;2022-09-12T09:15:24;25.60;93.30
26412;DHT22;59168;;;2022-09-12T09:20:34;25.80;93.50
26412;DHT22;59168;;;2022-09-12T09:30:55;30.70;90.70
26412;DHT22;59168;;;2022-09-12T09:33:22;30.20;88.60
26412;DHT22;59168;;;2022-09-12T09:35:55;30.00;88.00
26412;DHT22;59168;;;2022-09-12T09:43:43;31.30;89.50
26412;DHT22;59168;;;2022-09-12T09:46:08;29.40;85.60
26412;DHT22;59168;;;2022-09-12T09:48:36;26.30;89.90
26412;DHT22;59168;;;2022-09-12T09:51:04;23.70;93.20
26412;DHT22;59168;;;2022-09-12T09:53:53;22.30;95.00
26412;DHT22;59168;;;2022-09-12T09:58:52;21.00;97.40
26412;DHT22;59168;;;2022-09-12T10:01:17;21.80;97.30
26412;DHT22;59168;;;2022-09-12T10:03:47;23.40;96.40
26412;DHT22;59168;;;2022-09-12T10:08:48;27.80;91.20
26412;DHT22;59168;;;2022-09-12T10:13:40;29.00;91.80
26412;DHT22;59168;;;2022-09-12T10:16:16;29.90;90.60
26412;DHT22;59168;;;2022-09-12T10:18:43;30.10;88.70
26412;DHT22;59168;;;2022-09-12T10:21:20;27.60;89.20
26412;DHT22;59168;;;2022-09-12T10:23:46;26.70;90.90
26412;DHT22;59168;;;2022-09-12T10:26:13;28.60;90.80
26412;DHT22;59168;;;2022-09-12T10:28:40;30.10;86.90
26412;DHT22;59168;;;2022-09-12T10:31:06;29.70;87.20
26412;DHT22;59168;;;2022-09-12T10:33:36;29.70;85.10
26412;DHT22;59168;;;2022-09-12T10:36:04;28.00;86.70
26412;DHT22;59168;;;2022-09-12T10:38:31;27.00;88.20
26412;DHT22;59168;;;2022-09-12T10:41:06;26.20;88.70
26412;DHT22;59168;;;2022-09-12T10:46:19;24.70;91.00
26412;DHT22;59168;;;2022-09-12T10:48:45;23.20;92.80
26412;DHT22;59168;;;2022-09-12T10:51:27;22.20;94.30
26412;DHT22;59168;;;2022-09-12T10:53:54;21.80;95.70
26412;DHT22;59168;;;2022-09-12T10:56:21;21.60;95.70
26412;DHT22;59168;;;2022-09-12T11:06:30;24.60;93.60
26412;DHT22;59168;;;2022-09-12T11:14:12;27.00;89.50
26412;DHT22;59168;;;2022-09-12T11:21:57;27.70;87.10
26412;DHT22;59168;;;2022-09-12T11:30:01;29.70;84.90
26412;DHT22;59168;;;2022-09-12T11:35:15;30.50;82.80
26412;DHT22;59168;;;2022-09-12T11:40:28;30.40;82.80
26412;DHT22;59168;;;2022-09-12T11:43:01;30.00;81.80
26412;DHT22;59168;;;2022-09-12T11:45:32;30.10;83.50
26412;DHT22;59168;;;2022-09-12T11:48:04;30.30;80.60
26412;DHT22;59168;;;2022-09-12T11:50:31;29.60;80.30
26412;DHT22;59168;;;2022-09-12T11:53:18;28.30;82.50
26412;DHT22;59168;;;2022-09-12T11:55:52;27.40;83.90
26412;DHT22;59168;;;2022-09-12T11:58:19;26.70;85.50
26412;DHT22;59168;;;2022-09-12T12:00:49;25.90;86.30
26412;DHT22;59168;;;2022-09-12T12:05:58;24.10;90.20
26412;DHT22;59168;;;2022-09-12T12:08:25;23.00;91.80
26412;DHT22;59168;;;2022-09-12T12:10:56;22.10;93.10
26412;DHT22;59168;;;2022-09-12T12:13:32;21.90;93.40
26412;DHT22;59168;;;2022-09-12T12:16:04;22.10;93.40
26412;DHT22;59168;;;2022-09-12T12:18:31;22.80;92.70
26412;DHT22;59168;;;2022-09-12T12:24:00;24.60;91.50
26412;DHT22;59168;;;2022-09-12T12:29:05;27.10;89.50
26412;DHT22;59168;;;2022-09-12T12:31:37;27.90;87.90
26412;DHT22;59168;;;2022-09-12T12:34:19;27.30;86.80
26412;DHT22;59168;;;2022-09-12T12:36:46;26.80;86.90
26412;DHT22;59168;;;2022-09-12T12:42:01;25.90;90.00
26412;DHT22;59168;;;2022-09-12T12:47:13;26.40;89.40
26412;DHT22;59168;;;2022-09-12T12:49:40;26.60;89.10
26412;DHT22;59168;;;2022-09-12T12:52:13;26.70;88.20
26412;DHT22;59168;;;2022-09-12T12:59:43;26.10;88.70
26412;DHT22;59168;;;2022-09-12T13:02:21;25.50;88.50
26412;DHT22;59168;;;2022-09-12T13:04:47;24.60;90.40
26412;DHT22;59168;;;2022-09-12T13:07:19;24.80;90.70
26412;DHT22;59168;;;2022-09-12T13:09:46;24.80;90.70
26412;DHT22;59168;;;2022-09-12T13:12:27;24.50;90.20
26412;DHT22;59168;;;2022-09-12T13:15:00;24.40;90.80
26412;DHT22;59168;;;2022-09-12T13:17:30;24.40;91.30
26412;DHT22;59168;;;2022-09-12T13:22:40;24.10;91.40
26412;DHT22;59168;;;2022-09-12T13:25:20;24.00;92.00
26412;DHT22;59168;;;2022-09-12T13:27:59;23.90;91.70
26412;DHT22;59168;;;2022-09-12T13:30:25;23.80;91.40
26412;DHT22;59168;;;2022-09-12T13:32:51;23.80;92.40
26412;DHT22;59168;;;2022-09-12T13:35:22;23.40;91.40
26412;DHT22;59168;;;2022-09-12T13:43:12;22.10;92.90
26412;DHT22;59168;;;2022-09-12T13:45:41;21.70;94.00
26412;DHT22;59168;;;2022-09-12T13:48:17;21.80;93.90
26412;DHT22;59168;;;2022-09-12T13:50:50;22.00;94.50
26412;DHT22;59168;;;2022-09-12T13:53:18;22.30;93.90
26412;DHT22;59168;;;2022-09-12T13:55:46;22.50;93.90
26412;DHT22;59168;;;2022-09-12T13:58:25;22.50;94.60
26412;DHT22;59168;;;2022-09-12T14:03:27;22.50;94.10
26412;DHT22;59168;;;2022-09-12T14:06:11;22.50;93.80
26412;DHT22;59168;;;2022-09-12T14:08:40;22.50;93.60
26412;DHT22;59168;;;2022-09-12T14:11:07;22.70;93.40
26412;DHT22;59168;;;2022-09-12T14:13:32;22.80;93.20
26412;DHT22;59168;;;2022-09-12T14:15:58;22.60;93.00
26412;DHT22;59168;;;2022-09-12T14:18:28;22.40;93.60
26412;DHT22;59168;;;2022-09-12T14:20:55;22.40;93.60
26412;DHT22;59168;;;2022-09-12T14:23:29;22.40;94.00
26412;DHT22;59168;;;2022-09-12T14:25:55;22.40;93.90
26412;DHT22;59168;;;2022-09-12T14:28:22;22.50;94.10
26412;DHT22;59168;;;2022-09-12T14:30:57;22.20;94.10
26412;DHT22;59168;;;2022-09-12T14:33:22;22.30;94.80
26412;DHT22;59168;;;2022-09-12T14:35:49;22.40;94.20
26412;DHT22;59168;;;2022-09-12T14:40:42;22.50;94.60
26412;DHT22;59168;;;2022-09-12T14:43:18;22.10;94.60
26412;DHT22;59168;;;2022-09-12T14:45:49;22.10;95.10
26412;DHT22;59168;;;2022-09-12T14:48:17;22.00;94.70
26412;DHT22;59168;;;2022-09-12T14:50:43;22.10;94.90
26412;DHT22;59168;;;2022-09-12T14:55:45;22.10;94.80
26412;DHT22;59168;;;2022-09-12T15:00:55;22.20;94.90
26412;DHT22;59168;;;2022-09-12T15:03:26;22.20;95.60
26412;DHT22;59168;;;2022-09-12T15:05:52;22.20;94.90
26412;DHT22;59168;;;2022-09-12T15:08:17;22.20;95.20
26412;DHT22;59168;;;2022-09-12T15:10:43;22.20;95.40
26412;DHT22;59168;;;2022-09-12T15:15:35;21.90;95.40
26412;DHT22;59168;;;2022-09-12T15:18:01;21.70;95.10
26412;DHT22;59168;;;2022-09-12T15:20:27;21.50;95.90
26412;DHT22;59168;;;2022-09-12T15:22:52;21.60;96.30
26412;DHT22;59168;;;2022-09-12T15:25:18;21.60;96.10
26412;DHT22;59168;;;2022-09-12T15:27:44;21.60;95.10
26412;DHT22;59168;;;2022-09-12T15:30:10;21.70;95.90
26412;DHT22;59168;;;2022-09-12T15:32:37;21.60;95.80
26412;DHT22;59168;;;2022-09-12T15:35:08;21.60;96.10
26412;DHT22;59168;;;2022-09-12T15:37:35;21.50;95.90
26412;DHT22;59168;;;2022-09-12T15:40:01;21.40;96.20
26412;DHT22;59168;;;2022-09-12T15:42:27;21.40;96.30
26412;DHT22;59168;;;2022-09-12T15:44:53;21.50;95.90
26412;DHT22;59168;;;2022-09-12T15:47:19;21.40;96.20
26412;DHT22;59168;;;2022-09-12T15:49:44;21.30;96.40
26412;DHT22;59168;;;2022-09-12T15:52:12;21.20;96.10
26412;DHT22;59168;;;2022-09-12T15:54:38;21.10;96.40
26412;DHT22;59168;;;2022-09-12T15:57:04;21.00;96.20
26412;DHT22;59168;;;2022-09-12T15:59:30;21.00;96.10
26412;DHT22;59168;;;2022-09-12T16:01:55;20.90;96.70
26412;DHT22;59168;;;2022-09-12T16:04:22;20.90;96.90
26412;DHT22;59168;;;2022-09-12T16:06:48;20.90;96.80
26412;DHT22;59168;;;2022-09-12T16:09:14;20.80;96.70
26412;DHT22;59168;;;2022-09-12T16:11:39;20.80;97.00
26412;DHT22;59168;;;2022-09-12T16:14:05;20.70;97.10
26412;DHT22;59168;;;2022-09-12T16:16:31;20.60;97.30
26412;DHT22;59168;;;2022-09-12T16:18:56;20.60;97.30
26412;DHT22;59168;;;2022-09-12T16:21:22;20.50;97.70
26412;DHT22;59168;;;2022-09-12T16:23:48;20.40;97.90
26412;DHT22;59168;;;2022-09-12T16:26:14;20.40;98.10
26412;DHT22;59168;;;2022-09-12T16:28:40;20.30;98.10
26412;DHT22;59168;;;2022-09-12T16:31:06;20.20;98.60
26412;DHT22;59168;;;2022-09-12T16:33:32;20.20;98.90
26412;DHT22;59168;;;2022-09-12T16:38:30;20.10;99.40
26412;DHT22;59168;;;2022-09-12T16:41:02;20.00;99.60
26412;DHT22;59168;;;2022-09-12T16:43:28;19.90;99.70
26412;DHT22;59168;;;2022-09-12T16:46:01;19.90;99.90
26412;DHT22;59168;;;2022-09-12T16:48:27;19.80;99.90
26412;DHT22;59168;;;2022-09-12T16:50:56;19.70;99.90
26412;DHT22;59168;;;2022-09-12T16:53:22;19.70;99.90
26412;DHT22;59168;;;2022-09-12T16:55:48;19.60;99.90
26412;DHT22;59168;;;2022-09-12T16:58:14;19.60;99.90
26412;DHT22;59168;;;2022-09-12T17:00:39;19.50;99.90
26412;DHT22;59168;;;2022-09-12T17:03:05;19.40;99.90
26412;DHT22;59168;;;2022-09-12T17:05:30;19.40;99.90
26412;DHT22;59168;;;2022-09-12T17:07:56;19.30;99.90
26412;DHT22;59168;;;2022-09-12T17:10:21;19.20;99.90
26412;DHT22;59168;;;2022-09-12T17:12:47;19.10;99.90
26412;DHT22;59168;;;2022-09-12T17:15:12;19.10;99.90
26412;DHT22;59168;;;2022-09-12T17:17:38;19.00;99.90
26412;DHT22;59168;;;2022-09-12T17:20:03;18.90;99.90
26412;DHT22;59168;;;2022-09-12T17:22:29;18.90;99.90
26412;DHT22;59168;;;2022-09-12T17:24:54;18.80;99.90
26412;DHT22;59168;;;2022-09-12T17:27:20;18.70;99.90
26412;DHT22;59168;;;2022-09-12T17:29:45;18.70;99.90
26412;DHT22;59168;;;2022-09-12T17:32:11;18.60;99.90
26412;DHT22;59168;;;2022-09-12T17:34:36;18.50;99.90
26412;DHT22;59168;;;2022-09-12T17:37:02;18.40;99.90
26412;DHT22;59168;;;2022-09-12T17:39:27;18.30;99.90
26412;DHT22;59168;;;2022-09-12T17:41:53;18.30;99.90
26412;DHT22;59168;;;2022-09-12T17:44:21;18.20;99.90
26412;DHT22;59168;;;2022-09-12T17:46:47;18.10;99.90
26412;DHT22;59168;;;2022-09-12T17:49:13;18.10;99.90
26412;DHT22;59168;;;2022-09-12T17:51:39;18.00;99.90
26412;DHT22;59168;;;2022-09-12T17:54:12;17.90;99.90
26412;DHT22;59168;;;2022-09-12T17:56:40;17.70;99.90
26412;DHT22;59168;;;2022-09-12T17:59:07;17.50;99.90
26412;DHT22;59168;;;2022-09-12T18:01:34;17.40;99.90
26412;DHT22;59168;;;2022-09-12T18:04:19;17.30;99.90
26412;DHT22;59168;;;2022-09-12T18:06:44;17.20;99.90
26412;DHT22;59168;;;2022-09-12T18:09:17;17.10;99.90
26412;DHT22;59168;;;2022-09-12T18:11:43;17.00;99.90
26412;DHT22;59168;;;2022-09-12T18:14:09;16.90;99.90
26412;DHT22;59168;;;2022-09-12T18:16:35;16.80;99.90
26412;DHT22;59168;;;2022-09-12T18:19:00;16.70;99.90
26412;DHT22;59168;;;2022-09-12T18:21:26;16.60;99.90
26412;DHT22;59168;;;2022-09-12T18:23:53;16.50;99.90
26412;DHT22;59168;;;2022-09-12T18:26:19;16.60;99.90
26412;DHT22;59168;;;2022-09-12T18:28:44;16.50;99.90
26412;DHT22;59168;;;2022-09-12T18:31:14;16.50;99.90
26412;DHT22;59168;;;2022-09-12T18:33:40;16.40;99.90
26412;DHT22;59168;;;2022-09-12T18:36:06;16.40;99.90
26412;DHT22;59168;;;2022-09-12T18:38:32;16.40;99.90
26412;DHT22;59168;;;2022-09-12T18:41:04;16.30;99.90
26412;DHT22;59168;;;2022-09-12T18:43:30;16.30;99.90
26412;DHT22;59168;;;2022-09-12T18:45:56;16.30;99.90
26412;DHT22;59168;;;2022-09-12T18:48:21;16.30;99.90
26412;DHT22;59168;;;2022-09-12T18:50:47;16.20;99.90
26412;DHT22;59168;;;2022-09-12T18:53:12;16.20;99.90
26412;DHT22;59168;;;2022-09-12T18:55:39;16.10;99.90
26412;DHT22;59168;;;2022-09-12T18:58:04;16.00;99.90
26412;DHT22;59168;;;2022-09-12T19:00:30;16.00;99.90
26412;DHT22;59168;;;2022-09-12T19:02:55;15.20;99.90
26412;DHT22;59168;;;2022-09-12T19:05:21;15.80;99.90
26412;DHT22;59168;;;2022-09-12T19:07:46;15.80;99.90
26412;DHT22;59168;;;2022-09-12T19:10:12;15.70;99.90
26412;DHT22;59168;;;2022-09-12T19:12:37;15.70;99.90
26412;DHT22;59168;;;2022-09-12T19:15:03;15.70;99.90
26412;DHT22;59168;;;2022-09-12T19:17:29;15.60;99.90
26412;DHT22;59168;;;2022-09-12T19:19:54;15.60;99.90
26412;DHT22;59168;;;2022-09-12T19:22:20;15.50;99.90
26412;DHT22;59168;;;2022-09-12T19:24:45;15.40;99.90
26412;DHT22;59168;;;2022-09-12T19:27:11;15.30;99.90
26412;DHT22;59168;;;2022-09-12T19:29:37;15.30;99.90
26412;DHT22;59168;;;2022-09-12T19:32:03;15.20;99.90
26412;DHT22;59168;;;2022-09-12T19:34:29;15.10;99.90
26412;DHT22;59168;;;2022-09-12T19:36:54;15.10;99.90
26412;DHT22;59168;;;2022-09-12T19:39:20;15.00;99.90
26412;DHT22;59168;;;2022-09-12T19:41:45;14.90;99.90
26412;DHT22;59168;;;2022-09-12T19:44:12;14.90;99.90
26412;DHT22;59168;;;2022-09-12T19:46:37;14.90;99.90
26412;DHT22;59168;;;2022-09-12T19:49:03;14.80;99.90
26412;DHT22;59168;;;2022-09-12T19:51:28;14.80;99.90
26412;DHT22;59168;;;2022-09-12T19:53:54;14.70;99.90
26412;DHT22;59168;;;2022-09-12T19:56:20;14.70;99.90
26412;DHT22;59168;;;2022-09-12T19:58:46;14.60;99.90
26412;DHT22;59168;;;2022-09-12T20:01:19;14.60;99.90
26412;DHT22;59168;;;2022-09-12T20:03:45;14.60;99.90
26412;DHT22;59168;;;2022-09-12T20:06:11;14.60;99.90
26412;DHT22;59168;;;2022-09-12T20:08:37;14.70;99.90
26412;DHT22;59168;;;2022-09-12T20:11:05;14.70;99.90
26412;DHT22;59168;;;2022-09-12T20:13:30;14.70;99.90
26412;DHT22;59168;;;2022-09-12T20:15:57;14.70;99.90
26412;DHT22;59168;;;2022-09-12T20:18:29;14.70;99.90
26412;DHT22;59168;;;2022-09-12T20:20:54;14.70;99.90
26412;DHT22;59168;;;2022-09-12T20:23:21;14.70;99.90
26412;DHT22;59168;;;2022-09-12T20:25:47;14.60;99.90
26412;DHT22;59168;;;2022-09-12T20:28:13;14.60;99.90
26412;DHT22;59168;;;2022-09-12T20:30:38;14.50;99.90
26412;DHT22;59168;;;2022-09-12T20:33:04;14.50;99.90
26412;DHT22;59168;;;2022-09-12T20:35:29;14.40;99.90
26412;DHT22;59168;;;2022-09-12T20:37:55;14.30;99.90
26412;DHT22;59168;;;2022-09-12T20:40:20;14.60;99.90
26412;DHT22;59168;;;2022-09-12T20:42:46;14.30;99.90
26412;DHT22;59168;;;2022-09-12T20:45:11;14.20;99.90
26412;DHT22;59168;;;2022-09-12T20:47:37;14.20;99.90
26412;DHT22;59168;;;2022-09-12T20:50:02;14.30;99.90
26412;DHT22;59168;;;2022-09-12T20:52:28;14.30;99.90
26412;DHT22;59168;;;2022-09-12T20:54:54;14.20;99.90
26412;DHT22;59168;;;2022-09-12T20:57:19;14.20;99.90
26412;DHT22;59168;;;2022-09-12T20:59:45;14.20;99.90
26412;DHT22;59168;;;2022-09-12T21:02:13;14.20;99.90
26412;DHT22;59168;;;2022-09-12T21:04:39;14.20;99.90
26412;DHT22;59168;;;2022-09-12T21:07:05;14.20;99.90
26412;DHT22;59168;;;2022-09-12T21:09:30;14.10;99.90
26412;DHT22;59168;;;2022-09-12T21:11:56;14.10;99.90
26412;DHT22;59168;;;2022-09-12T21:14:21;14.10;99.90
26412;DHT22;59168;;;2022-09-12T21:16:47;14.10;99.90
26412;DHT22;59168;;;2022-09-12T21:19:12;14.10;99.90
26412;DHT22;59168;;;2022-09-12T21:21:38;14.10;99.90
26412;DHT22;59168;;;2022-09-12T21:24:03;14.10;99.90
26412;DHT22;59168;;;2022-09-12T21:26:30;14.00;99.90
26412;DHT22;59168;;;2022-09-12T21:28:55;13.90;99.90
26412;DHT22;59168;;;2022-09-12T21:31:21;13.90;99.90